createdAt,value
2016-10-19T16:28:08.228Z,21.29
2016-10-19T16:29:18.618Z,21.38
2016-10-19T16:30:29.013Z,21.29
2016-10-19T16:31:39.362Z,21.28
2016-10-19T16:32:49.712Z,21.3
2016-10-19T17:28:05.426Z,21.51
2016-10-19T17:29:15.784Z,21.53
2016-10-19T17:30:26.132Z,21.47
2016-10-19T17:31:36.481Z,21.56
2016-10-19T17:32:46.837Z,21.5
2016-10-19T17:33:57.187Z,21.47
2016-10-19T17:35:07.538Z,21.43
2016-10-19T17:36:17.892Z,21.51
2016-10-19T17:37:28.247Z,21.5
2016-10-19T17:38:38.602Z,21.45
2016-10-19T17:39:48.960Z,21.47
2016-10-19T17:40:59.316Z,21.48
2016-10-19T17:42:09.672Z,21.5
2016-10-19T18:28:27.007Z,21.59
2016-10-19T18:29:37.361Z,21.5
2016-10-19T18:30:47.710Z,21.58
2016-10-19T18:31:58.063Z,21.53
2016-10-19T18:33:08.412Z,21.54
2016-10-19T18:34:18.765Z,21.56
2016-10-19T18:35:29.115Z,21.47
2016-10-19T18:36:39.467Z,21.51
2016-10-19T18:37:49.819Z,21.5
2016-10-19T18:39:00.177Z,21.48
2016-10-19T18:40:10.533Z,21.47
2016-10-19T18:41:20.887Z,21.51
2016-10-19T18:42:31.243Z,21.5
2016-10-19T18:43:41.589Z,21.51
2016-10-19T18:44:51.944Z,21.51
2016-10-19T18:46:02.301Z,21.51
2016-10-19T18:47:12.660Z,21.47
2016-10-19T18:48:23.015Z,21.51
2016-10-19T18:49:33.377Z,21.48
2016-10-19T18:50:43.733Z,21.48
2016-10-19T18:51:54.089Z,21.54
2016-10-19T18:53:04.446Z,21.51
2016-10-19T18:54:14.804Z,21.48
2016-10-19T18:55:25.164Z,21.51
2016-10-19T18:56:35.520Z,21.47
2016-10-19T18:57:45.884Z,21.51
2016-10-19T18:58:56.246Z,21.48
2016-10-19T19:00:06.602Z,21.5
2016-10-19T19:28:40.596Z,21.58
2016-10-19T19:29:50.951Z,21.58
2016-10-19T19:31:01.301Z,21.59
2016-10-19T19:32:11.663Z,21.51
2016-10-19T19:33:21.999Z,21.53
2016-10-19T19:34:32.350Z,21.54
2016-10-19T19:35:42.702Z,21.54
2016-10-19T19:36:53.055Z,21.53
2016-10-19T19:38:03.671Z,21.51
2016-10-19T19:39:14.027Z,21.5
2016-10-19T19:40:24.378Z,21.5
2016-10-19T19:41:34.736Z,21.5
2016-10-19T19:42:45.142Z,21.51
2016-10-19T19:43:55.627Z,21.53
2016-10-19T19:45:05.981Z,21.51
2016-10-19T19:46:16.381Z,21.5
2016-10-19T19:47:26.744Z,21.5
2016-10-19T19:48:37.100Z,21.48
2016-10-19T20:28:41.917Z,21.56
2016-10-19T20:29:52.324Z,21.62
2016-10-19T20:31:02.714Z,21.63
2016-10-19T20:32:13.197Z,21.72
2016-10-19T20:33:03.698Z,21.72
2016-10-19T20:34:14.096Z,21.68
2016-10-19T20:35:24.497Z,21.68
2016-10-19T20:36:34.900Z,21.65
2016-10-19T20:37:45.306Z,21.69
2016-10-19T20:38:55.704Z,21.66
2016-10-19T20:40:06.106Z,21.7
2016-10-19T21:28:45.445Z,21.8
2016-10-19T21:29:55.841Z,21.74
2016-10-19T21:31:06.238Z,21.78
2016-10-19T21:32:16.639Z,21.75
2016-10-19T21:33:27.036Z,21.74
2016-10-19T21:34:37.435Z,21.8
2016-10-19T22:28:37.774Z,21.51
2016-10-19T22:29:48.170Z,21.54
2016-10-19T22:30:58.566Z,21.58
2016-10-19T22:32:08.917Z,21.59
2016-10-19T22:33:19.268Z,21.51
2016-10-19T22:34:29.622Z,21.56
2016-10-19T22:35:39.977Z,21.53
2016-10-19T22:36:50.331Z,21.54
2016-10-19T22:38:00.685Z,21.51
2016-10-19T22:39:11.038Z,21.48
2016-10-19T22:40:21.394Z,21.47
2016-10-19T23:28:28.934Z,21.29
2016-10-19T23:29:39.328Z,21.22
2016-10-19T23:30:49.723Z,21.28
2016-10-19T23:32:00.119Z,21.35
2016-10-19T23:33:10.467Z,21.26
2016-10-19T23:34:20.817Z,21.26
2016-10-19T23:35:31.169Z,21.29
2016-10-19T23:36:41.526Z,21.26
2016-10-19T23:37:51.878Z,21.28
2016-10-19T23:39:02.244Z,21.28
2016-10-19T23:40:12.586Z,21.32
2016-10-19T23:41:22.942Z,21.26
2016-10-19T23:42:33.293Z,21.26
2016-10-19T23:43:43.647Z,21.23
2016-10-19T23:44:54.005Z,21.26
2016-10-19T23:46:04.358Z,21.28
2016-10-19T23:47:14.704Z,21.22
2016-10-19T23:48:25.069Z,21.23
2016-10-19T23:49:35.425Z,21.26
2016-10-19T23:50:45.779Z,21.26
2016-10-19T23:51:56.138Z,21.22
2016-10-19T23:53:06.494Z,21.19
2016-10-19T23:54:16.852Z,21.23
2016-10-19T23:55:27.221Z,21.25
2016-10-19T23:56:37.575Z,21.25
2016-10-19T23:57:47.935Z,21.17
2016-10-19T23:58:58.288Z,21.17
